sensor_id;sensor_type;location;lat;lon;timestamp;pressure;altitude;pressure_sealevel;temperature;humidity
6196;BME280;3131;42.630;23.382;2023-02-01T00:00:26;94470.22;;;0.64;100.00
6196;BME280;3131;42.630;23.382;2023-02-01T00:02:55;94469.81;;;0.63;100.00
6196;BME280;3131;42.630;23.382;2023-02-01T00:05:24;94468.14;;;0.63;100.00
6196;BME280;3131;42.630;23.382;2023-02-01T00:07:54;94465.92;;;0.69;100.00
6196;BME280;3131;42.630;23.382;2023-02-01T00:10:23;94470.05;;;0.70;100.00
6196;BME280;3131;42.630;23.382;2023-02-01T00:12:52;94466.50;;;0.64;100.00
6196;BME280;3131;42.630;23.382;2023-02-01T00:15:22;94463.61;;;0.63;100.00
6196;BME280;3131;42.630;23.382;2023-02-01T00:17:54;94453.66;;;0.64;100.00
6196;BME280;3131;42.630;23.382;2023-02-01T00:20:24;94465.17;;;0.67;100.00
6196;BME280;3131;42.630;23.382;2023-02-01T00:22:53;94457.41;;;0.63;100.00
6196;BME280;3131;42.630;23.382;2023-02-01T00:25:22;94466.95;;;0.62;100.00
6196;BME280;3131;42.630;23.382;2023-02-01T00:27:52;94464.84;;;0.63;100.00
6196;BME280;3131;42.630;23.382;2023-02-01T00:30:22;94459.97;;;0.60;100.00
6196;BME280;3131;42.630;23.382;2023-02-01T00:32:52;94456.33;;;0.57;100.00
6196;BME280;3131;42.630;23.382;2023-02-01T00:35:21;94457.56;;;0.57;100.00
6196;BME280;3131;42.630;23.382;2023-02-01T00:37:50;94456.92;;;0.50;100.00
6196;BME280;3131;42.630;23.382;2023-02-01T00:40:20;94450.27;;;0.52;100.00
6196;BME280;3131;42.630;23.382;2023-02-01T00:42:49;94456.12;;;0.50;100.00
6196;BME280;3131;42.630;23.382;2023-02-01T00:45:19;94447.81;;;0.51;100.00
6196;BME280;3131;42.630;23.382;2023-02-01T00:47:49;94447.14;;;0.45;100.00
6196;BME280;3131;42.630;23.382;2023-02-01T00:50:19;94443.13;;;0.41;100.00
6196;BME280;3131;42.630;23.382;2023-02-01T00:52:48;94443.67;;;0.36;100.00
6196;BME280;3131;42.630;23.382;2023-02-01T00:55:17;94445.53;;;0.28;100.00
6196;BME280;3131;42.630;23.382;2023-02-01T00:57:47;94448.17;;;0.22;100.00
6196;BME280;3131;42.630;23.382;2023-02-01T01:00:18;94442.98;;;0.15;100.00
6196;BME280;3131;42.630;23.382;2023-02-01T01:02:47;94439.78;;;0.11;100.00
6196;BME280;3131;42.630;23.382;2023-02-01T01:05:17;94436.95;;;0.09;100.00
6196;BME280;3131;42.630;23.382;2023-02-01T01:07:46;94439.13;;;0.05;100.00
6196;BME280;3131;42.630;23.382;2023-02-01T01:10:16;94442.55;;;0.01;100.00
6196;BME280;3131;42.630;23.382;2023-02-01T01:12:46;94449.42;;;0.06;100.00
6196;BME280;3131;42.630;23.382;2023-02-01T01:15:16;94442.69;;;0.11;100.00
6196;BME280;3131;42.630;23.382;2023-02-01T01:17:45;94450.64;;;0.07;100.00
6196;BME280;3131;42.630;23.382;2023-02-01T01:20:15;94452.61;;;0.11;100.00
6196;BME280;3131;42.630;23.382;2023-02-01T01:22:44;94445.44;;;0.16;100.00
6196;BME280;3131;42.630;23.382;2023-02-01T01:25:13;94448.24;;;0.19;100.00
6196;BME280;3131;42.630;23.382;2023-02-01T01:27:43;94447.70;;;0.24;100.00
6196;BME280;3131;42.630;23.382;2023-02-01T01:30:13;94434.34;;;0.30;100.00
6196;BME280;3131;42.630;23.382;2023-02-01T01:32:42;94452.45;;;0.32;100.00
6196;BME280;3131;42.630;23.382;2023-02-01T01:35:12;94440.41;;;0.34;100.00
6196;BME280;3131;42.630;23.382;2023-02-01T01:37:41;94452.51;;;0.30;100.00
6196;BME280;3131;42.630;23.382;2023-02-01T01:40:12;94453.38;;;0.29;100.00
6196;BME280;3131;42.630;23.382;2023-02-01T01:42:42;94467.77;;;0.31;100.00
6196;BME280;3131;42.630;23.382;2023-02-01T01:45:22;94462.73;;;0.34;100.00
6196;BME280;3131;42.630;23.382;2023-02-01T01:47:55;94467.66;;;0.36;100.00
6196;BME280;3131;42.630;23.382;2023-02-01T01:50:27;94464.48;;;0.31;100.00
6196;BME280;3131;42.630;23.382;2023-02-01T01:53:00;94466.61;;;0.28;100.00
6196;BME280;3131;42.630;23.382;2023-02-01T01:55:32;94472.05;;;0.26;100.00
6196;BME280;3131;42.630;23.382;2023-02-01T01:58:04;94478.34;;;0.23;100.00
6196;BME280;3131;42.630;23.382;2023-02-01T02:00:34;94465.34;;;0.30;100.00
6196;BME280;3131;42.630;23.382;2023-02-01T02:03:07;94437.37;;;0.08;100.00
6196;BME280;3131;42.630;23.382;2023-02-01T02:05:37;94469.59;;;0.25;100.00
6196;BME280;3131;42.630;23.382;2023-02-01T02:08:06;94462.09;;;0.11;100.00
6196;BME280;3131;42.630;23.382;2023-02-01T02:10:37;94467.13;;;0.08;100.00
6196;BME280;3131;42.630;23.382;2023-02-01T02:13:24;94457.59;;;-0.07;100.00
6196;BME280;3131;42.630;23.382;2023-02-01T02:16:00;94455.56;;;-0.26;100.00
6196;BME280;3131;42.630;23.382;2023-02-01T02:18:32;94460.77;;;-0.35;100.00
6196;BME280;3131;42.630;23.382;2023-02-01T02:30:31;94424.26;;;-0.62;100.00
6196;BME280;3131;42.630;23.382;2023-02-01T02:33:43;94422.80;;;-0.71;100.00
6196;BME280;3131;42.630;23.382;2023-02-01T02:36:18;94436.04;;;-0.72;100.00
6196;BME280;3131;42.630;23.382;2023-02-01T02:38:52;94433.20;;;-0.75;100.00
6196;BME280;3131;42.630;23.382;2023-02-01T02:44:09;94453.92;;;-0.61;100.00
6196;BME280;3131;42.630;23.382;2023-02-01T02:47:00;94441.91;;;-0.58;100.00
6196;BME280;3131;42.630;23.382;2023-02-01T02:49:51;94447.22;;;-0.56;100.00
6196;BME280;3131;42.630;23.382;2023-02-01T02:52:23;94441.62;;;-0.46;100.00
6196;BME280;3131;42.630;23.382;2023-02-01T02:55:11;94443.52;;;-0.39;100.00
6196;BME280;3131;42.630;23.382;2023-02-01T02:57:42;94432.80;;;-0.40;100.00
6196;BME280;3131;42.630;23.382;2023-02-01T03:00:32;94423.93;;;-0.32;100.00
6196;BME280;3131;42.630;23.382;2023-02-01T03:03:20;94437.05;;;-0.29;100.00
6196;BME280;3131;42.630;23.382;2023-02-01T03:06:12;94448.47;;;-0.21;100.00
6196;BME280;3131;42.630;23.382;2023-02-01T03:08:43;94433.47;;;-0.17;100.00
6196;BME280;3131;42.630;23.382;2023-02-01T03:11:14;94442.93;;;-0.15;100.00
6196;BME280;3131;42.630;23.382;2023-02-01T03:13:46;94463.06;;;-0.11;100.00
6196;BME280;3131;42.630;23.382;2023-02-01T03:16:19;94462.02;;;-0.02;100.00
6196;BME280;3131;42.630;23.382;2023-02-01T03:18:55;94469.66;;;0.07;100.00
6196;BME280;3131;42.630;23.382;2023-02-01T03:21:28;94475.28;;;0.13;100.00
6196;BME280;3131;42.630;23.382;2023-02-01T03:23:59;94483.37;;;0.20;100.00
6196;BME280;3131;42.630;23.382;2023-02-01T03:26:30;94485.50;;;0.17;100.00
6196;BME280;3131;42.630;23.382;2023-02-01T03:29:08;94494.61;;;0.17;100.00
6196;BME280;3131;42.630;23.382;2023-02-01T03:31:34;94491.27;;;0.18;100.00
6196;BME280;3131;42.630;23.382;2023-02-01T03:34:04;94485.50;;;0.17;100.00
6196;BME280;3131;42.630;23.382;2023-02-01T03:36:35;94479.88;;;0.11;100.00
6196;BME280;3131;42.630;23.382;2023-02-01T03:39:09;94470.84;;;0.08;100.00
6196;BME280;3131;42.630;23.382;2023-02-01T03:41:41;94487.48;;;0.05;100.00
6196;BME280;3131;42.630;23.382;2023-02-01T03:44:13;94499.95;;;0.02;100.00
6196;BME280;3131;42.630;23.382;2023-02-01T03:46:46;94484.21;;;0.03;100.00
6196;BME280;3131;42.630;23.382;2023-02-01T03:49:18;94490.03;;;0.02;100.00
6196;BME280;3131;42.630;23.382;2023-02-01T03:51:49;94483.40;;;0.02;100.00
6196;BME280;3131;42.630;23.382;2023-02-01T03:54:20;94482.47;;;0.06;100.00
6196;BME280;3131;42.630;23.382;2023-02-01T03:56:49;94471.23;;;0.09;100.00
6196;BME280;3131;42.630;23.382;2023-02-01T03:59:20;94477.78;;;0.12;100.00
6196;BME280;3131;42.630;23.382;2023-02-01T04:01:50;94481.98;;;0.10;100.00
6196;BME280;3131;42.630;23.382;2023-02-01T04:04:20;94479.09;;;0.09;100.00
6196;BME280;3131;42.630;23.382;2023-02-01T04:06:50;94476.77;;;0.03;100.00
6196;BME280;3131;42.630;23.382;2023-02-01T04:09:20;94482.47;;;0.06;100.00
6196;BME280;3131;42.630;23.382;2023-02-01T04:11:49;94482.44;;;0.08;100.00
6196;BME280;3131;42.630;23.382;2023-02-01T04:14:19;94473.55;;;0.15;100.00
6196;BME280;3131;42.630;23.382;2023-02-01T04:16:48;94470.48;;;0.22;100.00
6196;BME280;3131;42.630;23.382;2023-02-01T04:19:17;94462.97;;;0.25;100.00
6196;BME280;3131;42.630;23.382;2023-02-01T04:21:47;94473.73;;;0.26;100.00
6196;BME280;3131;42.630;23.382;2023-02-01T04:24:16;94475.70;;;0.29;100.00
6196;BME280;3131;42.630;23.382;2023-02-01T04:26:45;94473.14;;;0.32;100.00
6196;BME280;3131;42.630;23.382;2023-02-01T04:29:15;94462.27;;;0.36;100.00
6196;BME280;3131;42.630;23.382;2023-02-01T04:31:44;94473.65;;;0.43;100.00
6196;BME280;3131;42.630;23.382;2023-02-01T04:34:14;94473.27;;;0.42;100.00
6196;BME280;3131;42.630;23.382;2023-02-01T04:36:43;94474.97;;;0.40;100.00
6196;BME280;3131;42.630;23.382;2023-02-01T04:39:13;94484.79;;;0.45;100.00
6196;BME280;3131;42.630;23.382;2023-02-01T04:41:42;94481.50;;;0.44;100.00
6196;BME280;3131;42.630;23.382;2023-02-01T04:44:13;94481.39;;;0.48;100.00
6196;BME280;3131;42.630;23.382;2023-02-01T04:46:43;94472.33;;;0.46;100.00
6196;BME280;3131;42.630;23.382;2023-02-01T04:49:14;94478.16;;;0.45;100.00
6196;BME280;3131;42.630;23.382;2023-02-01T04:51:43;94485.59;;;0.45;100.00
6196;BME280;3131;42.630;23.382;2023-02-01T04:54:12;94482.39;;;0.42;100.00
6196;BME280;3131;42.630;23.382;2023-02-01T04:56:42;94467.34;;;0.48;100.00
6196;BME280;3131;42.630;23.382;2023-02-01T04:59:12;94476.83;;;0.49;100.00
6196;BME280;3131;42.630;23.382;2023-02-01T05:01:41;94468.61;;;0.46;100.00
6196;BME280;3131;42.630;23.382;2023-02-01T05:04:10;94479.23;;;0.52;100.00
6196;BME280;3131;42.630;23.382;2023-02-01T05:06:40;94486.67;;;0.52;100.00
6196;BME280;3131;42.630;23.382;2023-02-01T05:11:56;94497.97;;;0.62;100.00
6196;BME280;3131;42.630;23.382;2023-02-01T05:17:28;94496.59;;;0.66;100.00
6196;BME280;3131;42.630;23.382;2023-02-01T05:19:58;94504.31;;;0.57;100.00
6196;BME280;3131;42.630;23.382;2023-02-01T05:22:27;94500.54;;;0.59;100.00
6196;BME280;3131;42.630;23.382;2023-02-01T05:27:47;94513.59;;;0.65;100.00
6196;BME280;3131;42.630;23.382;2023-02-01T05:30:17;94492.84;;;0.68;100.00
6196;BME280;3131;42.630;23.382;2023-02-01T05:35:46;94488.79;;;0.80;100.00
6196;BME280;3131;42.630;23.382;2023-02-01T05:38:15;94501.02;;;0.72;100.00
6196;BME280;3131;42.630;23.382;2023-02-01T05:43:25;94503.08;;;0.87;100.00
6196;BME280;3131;42.630;23.382;2023-02-01T05:48:42;94503.02;;;0.88;100.00
6196;BME280;3131;42.630;23.382;2023-02-01T05:53:57;94496.27;;;0.93;100.00
6196;BME280;3131;42.630;23.382;2023-02-01T05:59:08;94499.45;;;0.99;100.00
6196;BME280;3131;42.630;23.382;2023-02-01T06:01:37;94497.37;;;0.98;100.00
6196;BME280;3131;42.630;23.382;2023-02-01T06:04:07;94500.11;;;1.04;100.00
6196;BME280;3131;42.630;23.382;2023-02-01T06:06:36;94507.36;;;1.11;100.00
6196;BME280;3131;42.630;23.382;2023-02-01T06:09:06;94508.11;;;1.13;100.00
6196;BME280;3131;42.630;23.382;2023-02-01T06:11:36;94517.96;;;1.16;100.00
6196;BME280;3131;42.630;23.382;2023-02-01T06:14:05;94519.03;;;1.23;100.00
6196;BME280;3131;42.630;23.382;2023-02-01T06:16:35;94530.93;;;1.26;100.00
6196;BME280;3131;42.630;23.382;2023-02-01T06:19:05;94515.94;;;1.29;100.00
6196;BME280;3131;42.630;23.382;2023-02-01T06:21:34;94517.17;;;1.29;100.00
6196;BME280;3131;42.630;23.382;2023-02-01T06:24:04;94522.84;;;1.34;100.00
6196;BME280;3131;42.630;23.382;2023-02-01T06:26:34;94519.11;;;1.34;100.00
6196;BME280;3131;42.630;23.382;2023-02-01T06:29:03;94528.15;;;1.37;100.00
6196;BME280;3131;42.630;23.382;2023-02-01T06:34:15;94529.78;;;1.51;100.00
6196;BME280;3131;42.630;23.382;2023-02-01T06:36:44;94528.97;;;1.51;100.00
6196;BME280;3131;42.630;23.382;2023-02-01T06:39:14;94522.20;;;1.56;100.00
6196;BME280;3131;42.630;23.382;2023-02-01T06:41:46;94532.09;;;1.57;100.00
6196;BME280;3131;42.630;23.382;2023-02-01T06:44:15;94525.56;;;1.68;100.00
6196;BME280;3131;42.630;23.382;2023-02-01T06:46:45;94540.58;;;1.78;100.00
6196;BME280;3131;42.630;23.382;2023-02-01T06:49:14;94538.52;;;1.78;100.00
6196;BME280;3131;42.630;23.382;2023-02-01T06:51:43;94547.34;;;1.86;100.00
6196;BME280;3131;42.630;23.382;2023-02-01T06:54:13;94536.87;;;1.90;100.00
6196;BME280;3131;42.630;23.382;2023-02-01T06:56:42;94552.72;;;2.01;100.00
6196;BME280;3131;42.630;23.382;2023-02-01T06:59:12;94541.91;;;2.02;100.00
6196;BME280;3131;42.630;23.382;2023-02-01T07:01:42;94553.09;;;2.02;100.00
6196;BME280;3131;42.630;23.382;2023-02-01T07:04:12;94551.95;;;1.99;100.00
6196;BME280;3131;42.630;23.382;2023-02-01T07:06:42;94567.87;;;1.93;100.00
6196;BME280;3131;42.630;23.382;2023-02-01T07:09:11;94557.45;;;1.95;100.00
6196;BME280;3131;42.630;23.382;2023-02-01T07:11:41;94561.89;;;1.99;100.00
6196;BME280;3131;42.630;23.382;2023-02-01T07:14:11;94574.20;;;2.03;100.00
6196;BME280;3131;42.630;23.382;2023-02-01T07:16:41;94564.11;;;1.95;100.00
6196;BME280;3131;42.630;23.382;2023-02-01T07:19:10;94576.72;;;2.02;100.00
6196;BME280;3131;42.630;23.382;2023-02-01T07:21:40;94569.27;;;2.02;100.00
6196;BME280;3131;42.630;23.382;2023-02-01T07:24:09;94577.88;;;2.05;100.00
6196;BME280;3131;42.630;23.382;2023-02-01T07:26:38;94577.66;;;2.13;100.00
6196;BME280;3131;42.630;23.382;2023-02-01T07:29:07;94584.98;;;2.16;100.00
6196;BME280;3131;42.630;23.382;2023-02-01T07:31:37;94587.63;;;2.11;100.00
6196;BME280;3131;42.630;23.382;2023-02-01T07:34:06;94596.19;;;2.16;100.00
6196;BME280;3131;42.630;23.382;2023-02-01T07:36:35;94584.59;;;2.16;100.00
6196;BME280;3131;42.630;23.382;2023-02-01T07:39:05;94594.81;;;2.20;100.00
6196;BME280;3131;42.630;23.382;2023-02-01T07:44:21;94533.20;;;2.02;100.00
6196;BME280;3131;42.630;23.382;2023-02-01T07:46:51;94601.39;;;2.35;100.00
6196;BME280;3131;42.630;23.382;2023-02-01T07:49:20;94602.08;;;2.40;100.00
6196;BME280;3131;42.630;23.382;2023-02-01T07:51:50;94604.47;;;2.43;100.00
6196;BME280;3131;42.630;23.382;2023-02-01T07:54:20;94603.56;;;2.45;100.00
6196;BME280;3131;42.630;23.382;2023-02-01T07:56:49;94627.02;;;2.51;100.00
6196;BME280;3131;42.630;23.382;2023-02-01T07:59:19;94612.45;;;2.52;100.00
6196;BME280;3131;42.630;23.382;2023-02-01T08:01:48;94604.11;;;2.53;100.00
6196;BME280;3131;42.630;23.382;2023-02-01T08:04:17;94621.13;;;2.54;100.00
6196;BME280;3131;42.630;23.382;2023-02-01T08:06:47;94631.02;;;2.55;100.00
6196;BME280;3131;42.630;23.382;2023-02-01T08:09:17;94624.97;;;2.63;100.00
6196;BME280;3131;42.630;23.382;2023-02-01T08:11:46;94631.97;;;2.65;100.00
6196;BME280;3131;42.630;23.382;2023-02-01T08:14:15;94627.87;;;2.75;100.00
6196;BME280;3131;42.630;23.382;2023-02-01T08:16:44;94626.32;;;2.73;100.00
6196;BME280;3131;42.630;23.382;2023-02-01T08:19:14;94632.45;;;2.76;100.00
6196;BME280;3131;42.630;23.382;2023-02-01T08:21:43;94613.23;;;2.79;100.00
6196;BME280;3131;42.630;23.382;2023-02-01T08:24:12;94617.50;;;2.88;100.00
6196;BME280;3131;42.630;23.382;2023-02-01T08:26:41;94615.03;;;2.99;100.00
6196;BME280;3131;42.630;23.382;2023-02-01T08:29:11;94617.97;;;2.99;100.00
6196;BME280;3131;42.630;23.382;2023-02-01T08:31:41;94610.55;;;3.09;100.00
6196;BME280;3131;42.630;23.382;2023-02-01T08:34:11;94608.86;;;3.10;100.00
6196;BME280;3131;42.630;23.382;2023-02-01T08:36:40;94630.69;;;3.03;100.00
6196;BME280;3131;42.630;23.382;2023-02-01T08:39:10;94629.36;;;3.18;100.00
6196;BME280;3131;42.630;23.382;2023-02-01T08:41:39;94635.47;;;3.33;100.00
6196;BME280;3131;42.630;23.382;2023-02-01T08:44:10;94626.82;;;3.43;100.00
6196;BME280;3131;42.630;23.382;2023-02-01T08:46:39;94631.92;;;3.73;100.00
6196;BME280;3131;42.630;23.382;2023-02-01T08:49:08;94621.10;;;3.75;100.00
6196;BME280;3131;42.630;23.382;2023-02-01T08:51:38;94634.38;;;3.63;100.00
6196;BME280;3131;42.630;23.382;2023-02-01T08:54:07;94619.02;;;3.74;100.00
6196;BME280;3131;42.630;23.382;2023-02-01T08:56:36;94592.92;;;4.05;99.30
6196;BME280;3131;42.630;23.382;2023-02-01T08:59:06;94624.44;;;4.07;98.24
6196;BME280;3131;42.630;23.382;2023-02-01T09:01:35;94602.88;;;4.27;96.40
6196;BME280;3131;42.630;23.382;2023-02-01T09:06:51;94611.13;;;9.26;79.21
6196;BME280;3131;42.630;23.382;2023-02-01T09:09:22;94621.83;;;11.20;57.27
6196;BME280;3131;42.630;23.382;2023-02-01T09:11:51;94640.20;;;7.71;61.69
6196;BME280;3131;42.630;23.382;2023-02-01T09:14:21;94629.45;;;6.33;71.42
6196;BME280;3131;42.630;23.382;2023-02-01T09:16:50;94639.06;;;6.06;75.86
6196;BME280;3131;42.630;23.382;2023-02-01T09:19:19;94631.03;;;5.70;79.32
6196;BME280;3131;42.630;23.382;2023-02-01T09:21:49;94630.45;;;5.26;81.91
6196;BME280;3131;42.630;23.382;2023-02-01T09:24:19;94632.00;;;4.48;86.23
6196;BME280;3131;42.630;23.382;2023-02-01T09:26:48;94618.47;;;4.54;88.72
6196;BME280;3131;42.630;23.382;2023-02-01T09:29:17;94632.82;;;4.16;90.78
6196;BME280;3131;42.630;23.382;2023-02-01T09:31:47;94626.36;;;4.33;92.59
6196;BME280;3131;42.630;23.382;2023-02-01T09:34:16;94619.83;;;4.18;92.82
6196;BME280;3131;42.630;23.382;2023-02-01T09:36:45;94625.19;;;4.41;92.59
6196;BME280;3131;42.630;23.382;2023-02-01T09:39:15;94620.76;;;4.99;90.47
6196;BME280;3131;42.630;23.382;2023-02-01T09:41:50;94619.09;;;7.66;76.77
6196;BME280;3131;42.630;23.382;2023-02-01T09:44:25;94621.27;;;7.57;70.43
6196;BME280;3131;42.630;23.382;2023-02-01T09:46:56;94625.94;;;9.31;63.48
6196;BME280;3131;42.630;23.382;2023-02-01T09:49:27;94612.08;;;6.82;70.86
6196;BME280;3131;42.630;23.382;2023-02-01T09:52:00;94612.03;;;5.47;77.24
6196;BME280;3131;42.630;23.382;2023-02-01T09:54:34;94626.42;;;5.13;83.02
6196;BME280;3131;42.630;23.382;2023-02-01T09:59:56;94602.70;;;6.34;76.88
6196;BME280;3131;42.630;23.382;2023-02-01T10:05:13;94589.27;;;6.09;74.73
6196;BME280;3131;42.630;23.382;2023-02-01T10:10:34;94592.69;;;6.34;73.84
6196;BME280;3131;42.630;23.382;2023-02-01T10:16:31;94592.23;;;6.17;74.31
6196;BME280;3131;42.630;23.382;2023-02-01T10:21:48;94583.77;;;11.23;53.68
6196;BME280;3131;42.630;23.382;2023-02-01T10:27:14;94578.53;;;12.99;45.01
6196;BME280;3131;42.630;23.382;2023-02-01T10:29:48;94568.44;;;13.16;44.02
6196;BME280;3131;42.630;23.382;2023-02-01T10:35:01;94566.69;;;13.73;41.23
6196;BME280;3131;42.630;23.382;2023-02-01T10:40:20;94564.75;;;13.60;39.97
6196;BME280;3131;42.630;23.382;2023-02-01T10:45:41;94552.72;;;12.77;41.65
6196;BME280;3131;42.630;23.382;2023-02-01T10:50:58;94549.24;;;14.02;38.86
6196;BME280;3131;42.630;23.382;2023-02-01T10:53:31;94557.09;;;14.31;37.50
6196;BME280;3131;42.630;23.382;2023-02-01T10:56:06;94536.22;;;13.58;38.79
6196;BME280;3131;42.630;23.382;2023-02-01T10:58:42;94557.34;;;12.84;40.05
6196;BME280;3131;42.630;23.382;2023-02-01T11:01:08;94541.55;;;9.40;45.64
6196;BME280;3131;42.630;23.382;2023-02-01T11:03:40;94563.25;;;8.55;50.52
6196;BME280;3131;42.630;23.382;2023-02-01T11:06:19;94544.72;;;7.41;56.29
6196;BME280;3131;42.630;23.382;2023-02-01T11:08:51;94539.05;;;6.72;60.46
6196;BME280;3131;42.630;23.382;2023-02-01T11:11:21;94518.00;;;6.84;62.21
6196;BME280;3131;42.630;23.382;2023-02-01T11:13:56;94550.97;;;7.50;60.49
6196;BME280;3131;42.630;23.382;2023-02-01T11:16:33;94537.75;;;9.47;52.97
6196;BME280;3131;42.630;23.382;2023-02-01T11:19:02;94557.05;;;10.87;48.20
6196;BME280;3131;42.630;23.382;2023-02-01T11:21:32;94546.33;;;11.72;44.95
6196;BME280;3131;42.630;23.382;2023-02-01T11:24:03;94563.64;;;12.67;42.22
6196;BME280;3131;42.630;23.382;2023-02-01T11:26:35;94568.97;;;11.55;44.43
6196;BME280;3131;42.630;23.382;2023-02-01T11:29:09;94535.41;;;13.40;40.92
6196;BME280;3131;42.630;23.382;2023-02-01T11:31:38;94545.17;;;12.94;41.78
6196;BME280;3131;42.630;23.382;2023-02-01T11:34:11;94541.16;;;13.26;40.81
6196;BME280;3131;42.630;23.382;2023-02-01T11:36:41;94533.11;;;13.49;40.35
6196;BME280;3131;42.630;23.382;2023-02-01T11:39:20;94531.52;;;13.42;38.71
6196;BME280;3131;42.630;23.382;2023-02-01T11:41:59;94548.10;;;12.60;40.71
6196;BME280;3131;42.630;23.382;2023-02-01T11:44:33;94533.34;;;13.45;39.19
6196;BME280;3131;42.630;23.382;2023-02-01T11:47:20;94530.11;;;13.98;38.69
6196;BME280;3131;42.630;23.382;2023-02-01T11:49:50;94534.59;;;12.37;40.39
6196;BME280;3131;42.630;23.382;2023-02-01T11:52:35;94525.87;;;11.69;41.50
6196;BME280;3131;42.630;23.382;2023-02-01T11:55:25;94521.82;;;12.91;40.98
6196;BME280;3131;42.630;23.382;2023-02-01T11:58:00;94509.23;;;14.32;38.16
6196;BME280;3131;42.630;23.382;2023-02-01T12:03:52;94506.09;;;13.81;37.51
6196;BME280;3131;42.630;23.382;2023-02-01T12:06:27;94499.72;;;13.49;38.77
6196;BME280;3131;42.630;23.382;2023-02-01T12:12:08;94484.94;;;13.98;38.70
6196;BME280;3131;42.630;23.382;2023-02-01T12:14:48;94488.03;;;14.75;36.55
6196;BME280;3131;42.630;23.382;2023-02-01T12:20:28;94497.28;;;13.53;39.20
6196;BME280;3131;42.630;23.382;2023-02-01T12:23:06;94487.09;;;13.27;39.20
6196;BME280;3131;42.630;23.382;2023-02-01T12:25:42;94494.34;;;14.12;37.94
6196;BME280;3131;42.630;23.382;2023-02-01T12:28:36;94500.32;;;13.79;38.09
6196;BME280;3131;42.630;23.382;2023-02-01T12:31:19;94486.02;;;13.46;39.36
6196;BME280;3131;42.630;23.382;2023-02-01T12:34:05;94483.76;;;14.55;36.55
6196;BME280;3131;42.630;23.382;2023-02-01T12:36:41;94498.12;;;13.42;38.52
6196;BME280;3131;42.630;23.382;2023-02-01T12:39:14;94500.17;;;13.15;40.28
6196;BME280;3131;42.630;23.382;2023-02-01T12:44:46;94484.64;;;12.97;39.92
6196;BME280;3131;42.630;23.382;2023-02-01T12:47:21;94490.88;;;11.94;40.33
6196;BME280;3131;42.630;23.382;2023-02-01T12:49:55;94482.95;;;12.28;40.63
6196;BME280;3131;42.630;23.382;2023-02-01T12:52:27;94488.53;;;12.10;40.39
6196;BME280;3131;42.630;23.382;2023-02-01T12:55:02;94495.66;;;12.62;40.05
6196;BME280;3131;42.630;23.382;2023-02-01T12:57:33;94502.45;;;12.67;39.79
6196;BME280;3131;42.630;23.382;2023-02-01T13:00:12;94516.14;;;12.59;39.43
6196;BME280;3131;42.630;23.382;2023-02-01T13:02:41;94500.09;;;12.30;39.99
6196;BME280;3131;42.630;23.382;2023-02-01T13:05:17;94501.52;;;12.57;39.54
6196;BME280;3131;42.630;23.382;2023-02-01T13:07:50;94496.22;;;12.43;39.50
6196;BME280;3131;42.630;23.382;2023-02-01T13:13:08;94490.75;;;13.11;38.51
6196;BME280;3131;42.630;23.382;2023-02-01T13:15:40;94496.38;;;13.15;37.98
6196;BME280;3131;42.630;23.382;2023-02-01T13:18:13;94489.99;;;13.71;38.10
6196;BME280;3131;42.630;23.382;2023-02-01T13:20:47;94490.63;;;12.73;38.08
6196;BME280;3131;42.630;23.382;2023-02-01T13:23:21;94484.06;;;12.93;38.98
6196;BME280;3131;42.630;23.382;2023-02-01T13:25:52;94499.27;;;12.24;39.38
6196;BME280;3131;42.630;23.382;2023-02-01T13:31:23;94478.98;;;14.61;36.01
6196;BME280;3131;42.630;23.382;2023-02-01T13:37:08;94489.85;;;13.29;37.08
6196;BME280;3131;42.630;23.382;2023-02-01T13:39:50;94499.16;;;13.00;37.22
6196;BME280;3131;42.630;23.382;2023-02-01T13:42:22;94501.19;;;12.56;37.75
6196;BME280;3131;42.630;23.382;2023-02-01T13:44:55;94503.39;;;13.00;36.89
6196;BME280;3131;42.630;23.382;2023-02-01T13:47:27;94480.17;;;13.00;37.60
6196;BME280;3131;42.630;23.382;2023-02-01T13:50:00;94485.02;;;12.29;37.58
6196;BME280;3131;42.630;23.382;2023-02-01T13:52:35;94477.38;;;13.49;36.62
6196;BME280;3131;42.630;23.382;2023-02-01T13:55:27;94486.95;;;12.72;37.02
6196;BME280;3131;42.630;23.382;2023-02-01T13:58:19;94485.48;;;11.93;38.23
6196;BME280;3131;42.630;23.382;2023-02-01T14:00:50;94488.51;;;12.45;38.06
6196;BME280;3131;42.630;23.382;2023-02-01T14:03:22;94490.74;;;13.06;37.03
6196;BME280;3131;42.630;23.382;2023-02-01T14:06:34;94492.48;;;11.95;38.21
6196;BME280;3131;42.630;23.382;2023-02-01T14:12:47;94478.68;;;9.52;43.77
6196;BME280;3131;42.630;23.382;2023-02-01T14:15:37;94479.21;;;9.09;45.58
6196;BME280;3131;42.630;23.382;2023-02-01T14:21:17;94475.39;;;8.30;48.84
6196;BME280;3131;42.630;23.382;2023-02-01T14:23:45;94472.07;;;7.62;51.52
6196;BME280;3131;42.630;23.382;2023-02-01T14:26:20;94473.06;;;7.44;53.35
6196;BME280;3131;42.630;23.382;2023-02-01T14:32:13;94463.06;;;7.35;56.29
6196;BME280;3131;42.630;23.382;2023-02-01T14:34:48;94454.84;;;7.56;54.93
6196;BME280;3131;42.630;23.382;2023-02-01T14:40:05;94444.63;;;6.89;57.26
6196;BME280;3131;42.630;23.382;2023-02-01T14:42:38;94441.79;;;6.55;59.27
6196;BME280;3131;42.630;23.382;2023-02-01T14:45:47;94438.44;;;6.38;61.29
6196;BME280;3131;42.630;23.382;2023-02-01T14:48:46;94445.45;;;6.23;61.70
6196;BME280;3131;42.630;23.382;2023-02-01T14:51:18;94435.89;;;5.88;63.60
6196;BME280;3131;42.630;23.382;2023-02-01T14:53:48;94455.26;;;5.93;64.88
6196;BME280;3131;42.630;23.382;2023-02-01T14:56:19;94449.42;;;5.75;66.84
6196;BME280;3131;42.630;23.382;2023-02-01T15:01:35;94458.29;;;5.54;69.20
6196;BME280;3131;42.630;23.382;2023-02-01T15:04:09;94464.75;;;5.41;70.42
6196;BME280;3131;42.630;23.382;2023-02-01T15:06:40;94471.95;;;5.30;71.73
6196;BME280;3131;42.630;23.382;2023-02-01T15:09:14;94457.74;;;5.39;71.96
6196;BME280;3131;42.630;23.382;2023-02-01T15:11:57;94455.91;;;5.34;72.84
6196;BME280;3131;42.630;23.382;2023-02-01T15:14:28;94456.24;;;5.18;73.50
6196;BME280;3131;42.630;23.382;2023-02-01T15:16:58;94445.63;;;5.12;74.61
6196;BME280;3131;42.630;23.382;2023-02-01T15:22:17;94454.59;;;5.08;75.49
6196;BME280;3131;42.630;23.382;2023-02-01T15:24:52;94448.00;;;4.97;75.95
6196;BME280;3131;42.630;23.382;2023-02-01T15:27:22;94456.56;;;5.01;74.46
6196;BME280;3131;42.630;23.382;2023-02-01T15:29:51;94448.62;;;5.02;74.65